sensor_id;sensor_type;location;lat;lon;timestamp;temperature;humidity
19254;DHT22;9761;50.926;5.330;2022-07-21T00:00:17;19.50;99.90
19254;DHT22;9761;50.926;5.330;2022-07-21T00:02:46;19.30;99.90
19254;DHT22;9761;50.926;5.330;2022-07-21T00:05:13;19.40;99.90
19254;DHT22;9761;50.926;5.330;2022-07-21T00:07:40;19.30;99.90
19254;DHT22;9761;50.926;5.330;2022-07-21T00:10:07;19.20;99.90
19254;DHT22;9761;50.926;5.330;2022-07-21T00:12:34;19.20;99.90
19254;DHT22;9761;50.926;5.330;2022-07-21T00:15:01;19.40;99.90
19254;DHT22;9761;50.926;5.330;2022-07-21T00:17:27;19.50;99.90
19254;DHT22;9761;50.926;5.330;2022-07-21T00:19:56;19.50;99.90
19254;DHT22;9761;50.926;5.330;2022-07-21T00:22:25;19.40;99.90
19254;DHT22;9761;50.926;5.330;2022-07-21T00:24:53;19.30;99.90
19254;DHT22;9761;50.926;5.330;2022-07-21T00:27:20;19.20;99.90
19254;DHT22;9761;50.926;5.330;2022-07-21T00:29:47;19.10;99.90
19254;DHT22;9761;50.926;5.330;2022-07-21T00:32:14;19.10;99.90
19254;DHT22;9761;50.926;5.330;2022-07-21T00:34:40;19.00;99.90
19254;DHT22;9761;50.926;5.330;2022-07-21T00:37:09;19.10;99.90
19254;DHT22;9761;50.926;5.330;2022-07-21T00:39:36;19.20;99.90
19254;DHT22;9761;50.926;5.330;2022-07-21T00:42:03;19.10;99.90
19254;DHT22;9761;50.926;5.330;2022-07-21T00:44:32;19.10;99.90
19254;DHT22;9761;50.926;5.330;2022-07-21T00:46:59;19.10;99.90
19254;DHT22;9761;50.926;5.330;2022-07-21T00:49:26;19.00;99.90
19254;DHT22;9761;50.926;5.330;2022-07-21T00:51:53;19.00;99.90
19254;DHT22;9761;50.926;5.330;2022-07-21T00:54:21;19.10;99.90
19254;DHT22;9761;50.926;5.330;2022-07-21T00:56:48;19.00;99.90
19254;DHT22;9761;50.926;5.330;2022-07-21T00:59:14;19.10;99.90
19254;DHT22;9761;50.926;5.330;2022-07-21T01:01:41;19.10;99.90
19254;DHT22;9761;50.926;5.330;2022-07-21T01:04:08;19.00;99.90
19254;DHT22;9761;50.926;5.330;2022-07-21T01:06:35;19.00;99.90
19254;DHT22;9761;50.926;5.330;2022-07-21T01:09:02;19.00;99.90
19254;DHT22;9761;50.926;5.330;2022-07-21T01:11:33;19.20;99.90
19254;DHT22;9761;50.926;5.330;2022-07-21T01:14:03;19.30;99.90
19254;DHT22;9761;50.926;5.330;2022-07-21T01:16:32;19.10;99.90
19254;DHT22;9761;50.926;5.330;2022-07-21T01:19:03;19.10;99.90
19254;DHT22;9761;50.926;5.330;2022-07-21T01:21:32;18.90;99.90
19254;DHT22;9761;50.926;5.330;2022-07-21T01:24:00;18.90;99.90
19254;DHT22;9761;50.926;5.330;2022-07-21T01:26:27;18.80;99.90
19254;DHT22;9761;50.926;5.330;2022-07-21T01:28:54;18.90;99.90
19254;DHT22;9761;50.926;5.330;2022-07-21T01:31:21;19.10;99.90
19254;DHT22;9761;50.926;5.330;2022-07-21T01:33:51;19.00;99.90
19254;DHT22;9761;50.926;5.330;2022-07-21T01:36:20;18.90;99.90
19254;DHT22;9761;50.926;5.330;2022-07-21T01:38:52;18.80;99.90
19254;DHT22;9761;50.926;5.330;2022-07-21T01:41:38;18.70;99.90
19254;DHT22;9761;50.926;5.330;2022-07-21T01:44:07;18.50;99.90
19254;DHT22;9761;50.926;5.330;2022-07-21T01:46:38;18.40;99.90
19254;DHT22;9761;50.926;5.330;2022-07-21T01:49:07;18.30;99.90
19254;DHT22;9761;50.926;5.330;2022-07-21T01:51:34;18.40;99.90
19254;DHT22;9761;50.926;5.330;2022-07-21T01:54:02;18.50;99.90
19254;DHT22;9761;50.926;5.330;2022-07-21T01:56:29;18.50;99.90
19254;DHT22;9761;50.926;5.330;2022-07-21T01:58:56;18.60;99.90
19254;DHT22;9761;50.926;5.330;2022-07-21T02:01:24;18.60;99.90
19254;DHT22;9761;50.926;5.330;2022-07-21T02:03:52;18.50;99.90
19254;DHT22;9761;50.926;5.330;2022-07-21T02:06:19;18.50;99.90
19254;DHT22;9761;50.926;5.330;2022-07-21T02:08:46;18.50;99.90
19254;DHT22;9761;50.926;5.330;2022-07-21T02:11:14;18.40;99.90
19254;DHT22;9761;50.926;5.330;2022-07-21T02:13:41;18.50;99.90
19254;DHT22;9761;50.926;5.330;2022-07-21T02:16:08;18.50;99.90
19254;DHT22;9761;50.926;5.330;2022-07-21T02:18:35;18.50;99.90
19254;DHT22;9761;50.926;5.330;2022-07-21T02:21:04;18.60;99.90
19254;DHT22;9761;50.926;5.330;2022-07-21T02:23:31;18.60;99.90
19254;DHT22;9761;50.926;5.330;2022-07-21T02:25:59;18.50;99.90
19254;DHT22;9761;50.926;5.330;2022-07-21T02:28:32;18.50;99.90
19254;DHT22;9761;50.926;5.330;2022-07-21T02:31:03;18.60;99.90
19254;DHT22;9761;50.926;5.330;2022-07-21T02:33:32;18.70;99.90
19254;DHT22;9761;50.926;5.330;2022-07-21T02:35:59;18.70;99.90
19254;DHT22;9761;50.926;5.330;2022-07-21T02:38:26;18.70;99.90
19254;DHT22;9761;50.926;5.330;2022-07-21T02:40:53;18.70;99.90
19254;DHT22;9761;50.926;5.330;2022-07-21T02:43:19;18.70;99.90
19254;DHT22;9761;50.926;5.330;2022-07-21T02:45:47;18.80;99.90
19254;DHT22;9761;50.926;5.330;2022-07-21T02:48:17;18.70;99.90
19254;DHT22;9761;50.926;5.330;2022-07-21T02:50:44;18.70;99.90
19254;DHT22;9761;50.926;5.330;2022-07-21T02:53:11;18.80;99.90
19254;DHT22;9761;50.926;5.330;2022-07-21T02:55:38;18.80;99.90
19254;DHT22;9761;50.926;5.330;2022-07-21T02:58:07;18.80;99.90
19254;DHT22;9761;50.926;5.330;2022-07-21T03:00:34;18.80;99.90
19254;DHT22;9761;50.926;5.330;2022-07-21T03:03:02;18.70;99.90
19254;DHT22;9761;50.926;5.330;2022-07-21T03:05:30;18.60;99.90
19254;DHT22;9761;50.926;5.330;2022-07-21T03:07:59;18.60;99.90
19254;DHT22;9761;50.926;5.330;2022-07-21T03:10:26;18.70;99.90
19254;DHT22;9761;50.926;5.330;2022-07-21T03:12:53;18.70;99.90
19254;DHT22;9761;50.926;5.330;2022-07-21T03:15:20;19.00;99.90
19254;DHT22;9761;50.926;5.330;2022-07-21T03:17:46;19.00;99.90
19254;DHT22;9761;50.926;5.330;2022-07-21T03:20:14;19.20;99.90
19254;DHT22;9761;50.926;5.330;2022-07-21T03:22:41;19.00;99.90
19254;DHT22;9761;50.926;5.330;2022-07-21T03:25:08;18.90;99.90
19254;DHT22;9761;50.926;5.330;2022-07-21T03:27:35;18.90;99.90
19254;DHT22;9761;50.926;5.330;2022-07-21T03:30:06;18.80;99.90
19254;DHT22;9761;50.926;5.330;2022-07-21T03:32:34;19.00;99.90
19254;DHT22;9761;50.926;5.330;2022-07-21T03:35:01;19.20;99.90
19254;DHT22;9761;50.926;5.330;2022-07-21T03:37:29;18.90;99.90
19254;DHT22;9761;50.926;5.330;2022-07-21T03:39:56;19.00;99.90
19254;DHT22;9761;50.926;5.330;2022-07-21T03:42:23;19.10;99.90
19254;DHT22;9761;50.926;5.330;2022-07-21T03:44:50;19.10;99.90
19254;DHT22;9761;50.926;5.330;2022-07-21T03:47:16;19.00;99.90
19254;DHT22;9761;50.926;5.330;2022-07-21T03:49:43;18.90;99.90
19254;DHT22;9761;50.926;5.330;2022-07-21T03:52:10;19.00;99.90
19254;DHT22;9761;50.926;5.330;2022-07-21T03:54:39;19.10;99.90
19254;DHT22;9761;50.926;5.330;2022-07-21T03:57:05;19.20;99.90
19254;DHT22;9761;50.926;5.330;2022-07-21T03:59:32;19.20;99.90
19254;DHT22;9761;50.926;5.330;2022-07-21T04:02:01;19.20;99.90
19254;DHT22;9761;50.926;5.330;2022-07-21T04:04:28;19.00;99.90
19254;DHT22;9761;50.926;5.330;2022-07-21T04:06:55;18.90;99.90
19254;DHT22;9761;50.926;5.330;2022-07-21T04:09:21;19.00;99.90
19254;DHT22;9761;50.926;5.330;2022-07-21T04:11:53;19.00;99.90
19254;DHT22;9761;50.926;5.330;2022-07-21T04:14:20;19.00;99.90
19254;DHT22;9761;50.926;5.330;2022-07-21T04:16:47;18.90;99.90
19254;DHT22;9761;50.926;5.330;2022-07-21T04:19:14;19.00;99.90
19254;DHT22;9761;50.926;5.330;2022-07-21T04:21:41;18.90;99.90
19254;DHT22;9761;50.926;5.330;2022-07-21T04:24:08;19.00;99.90
19254;DHT22;9761;50.926;5.330;2022-07-21T04:26:36;19.00;99.90
19254;DHT22;9761;50.926;5.330;2022-07-21T04:29:04;19.00;99.90
19254;DHT22;9761;50.926;5.330;2022-07-21T04:31:31;18.90;99.90
19254;DHT22;9761;50.926;5.330;2022-07-21T04:33:59;18.80;99.90
19254;DHT22;9761;50.926;5.330;2022-07-21T04:36:26;19.00;99.90
19254;DHT22;9761;50.926;5.330;2022-07-21T04:38:52;18.90;99.90
19254;DHT22;9761;50.926;5.330;2022-07-21T04:41:19;18.90;99.90
19254;DHT22;9761;50.926;5.330;2022-07-21T04:43:46;19.00;99.90
19254;DHT22;9761;50.926;5.330;2022-07-21T04:46:14;19.00;99.90
19254;DHT22;9761;50.926;5.330;2022-07-21T04:48:41;19.00;99.90
19254;DHT22;9761;50.926;5.330;2022-07-21T04:51:08;19.00;99.90
19254;DHT22;9761;50.926;5.330;2022-07-21T04:53:37;19.00;99.90
19254;DHT22;9761;50.926;5.330;2022-07-21T04:56:04;19.00;99.90
19254;DHT22;9761;50.926;5.330;2022-07-21T04:58:31;19.30;99.90
19254;DHT22;9761;50.926;5.330;2022-07-21T05:01:00;19.30;99.90
19254;DHT22;9761;50.926;5.330;2022-07-21T05:03:31;19.30;99.90
19254;DHT22;9761;50.926;5.330;2022-07-21T05:05:58;19.20;99.90
19254;DHT22;9761;50.926;5.330;2022-07-21T05:08:24;19.10;99.90
19254;DHT22;9761;50.926;5.330;2022-07-21T05:10:53;19.10;99.90
19254;DHT22;9761;50.926;5.330;2022-07-21T05:13:19;19.10;99.90
19254;DHT22;9761;50.926;5.330;2022-07-21T05:15:46;19.20;99.90
19254;DHT22;9761;50.926;5.330;2022-07-21T05:18:13;19.40;99.90
19254;DHT22;9761;50.926;5.330;2022-07-21T05:20:43;19.40;99.90
19254;DHT22;9761;50.926;5.330;2022-07-21T05:23:16;19.50;99.90
19254;DHT22;9761;50.926;5.330;2022-07-21T05:25:59;19.30;99.90
19254;DHT22;9761;50.926;5.330;2022-07-21T05:31:37;19.60;99.90
19254;DHT22;9761;50.926;5.330;2022-07-21T05:34:13;19.50;99.90
19254;DHT22;9761;50.926;5.330;2022-07-21T05:36:46;19.50;99.90
19254;DHT22;9761;50.926;5.330;2022-07-21T05:39:13;19.50;99.90
19254;DHT22;9761;50.926;5.330;2022-07-21T05:41:42;19.50;99.90
19254;DHT22;9761;50.926;5.330;2022-07-21T05:44:08;19.70;99.90
19254;DHT22;9761;50.926;5.330;2022-07-21T05:46:35;19.80;99.90
19254;DHT22;9761;50.926;5.330;2022-07-21T05:49:02;19.50;99.90
19254;DHT22;9761;50.926;5.330;2022-07-21T05:51:29;19.40;99.90
19254;DHT22;9761;50.926;5.330;2022-07-21T05:53:57;19.30;99.90
19254;DHT22;9761;50.926;5.330;2022-07-21T05:56:24;19.40;99.90
19254;DHT22;9761;50.926;5.330;2022-07-21T05:58:51;19.40;99.90
19254;DHT22;9761;50.926;5.330;2022-07-21T06:01:19;19.50;99.90
19254;DHT22;9761;50.926;5.330;2022-07-21T06:03:47;19.40;99.90
19254;DHT22;9761;50.926;5.330;2022-07-21T06:06:14;19.40;99.90
19254;DHT22;9761;50.926;5.330;2022-07-21T06:08:42;19.40;99.90
19254;DHT22;9761;50.926;5.330;2022-07-21T06:11:11;19.20;99.90
19254;DHT22;9761;50.926;5.330;2022-07-21T06:13:38;19.20;99.90
19254;DHT22;9761;50.926;5.330;2022-07-21T06:16:08;19.40;99.90
19254;DHT22;9761;50.926;5.330;2022-07-21T06:18:37;19.40;99.90
19254;DHT22;9761;50.926;5.330;2022-07-21T06:21:04;19.30;99.90
19254;DHT22;9761;50.926;5.330;2022-07-21T06:23:37;19.40;99.90
19254;DHT22;9761;50.926;5.330;2022-07-21T06:29:01;19.50;99.90
19254;DHT22;9761;50.926;5.330;2022-07-21T06:32:04;19.30;99.90
19254;DHT22;9761;50.926;5.330;2022-07-21T06:34:43;19.20;99.90
19254;DHT22;9761;50.926;5.330;2022-07-21T06:37:29;19.40;99.90
19254;DHT22;9761;50.926;5.330;2022-07-21T06:40:15;19.40;99.90
19254;DHT22;9761;50.926;5.330;2022-07-21T06:43:00;19.50;99.90
19254;DHT22;9761;50.926;5.330;2022-07-21T06:45:43;19.70;99.90
19254;DHT22;9761;50.926;5.330;2022-07-21T06:48:10;19.70;99.90
19254;DHT22;9761;50.926;5.330;2022-07-21T06:50:39;19.90;99.90
19254;DHT22;9761;50.926;5.330;2022-07-21T06:53:08;20.10;99.90
19254;DHT22;9761;50.926;5.330;2022-07-21T06:55:35;20.00;99.90
19254;DHT22;9761;50.926;5.330;2022-07-21T06:58:12;19.80;99.90
19254;DHT22;9761;50.926;5.330;2022-07-21T07:00:41;19.80;99.90
19254;DHT22;9761;50.926;5.330;2022-07-21T07:03:08;19.90;99.90
19254;DHT22;9761;50.926;5.330;2022-07-21T07:05:35;19.70;99.90
19254;DHT22;9761;50.926;5.330;2022-07-21T07:08:02;19.70;99.90
19254;DHT22;9761;50.926;5.330;2022-07-21T07:10:31;19.80;99.90
19254;DHT22;9761;50.926;5.330;2022-07-21T07:13:00;19.70;99.90
19254;DHT22;9761;50.926;5.330;2022-07-21T07:15:28;20.00;99.90
19254;DHT22;9761;50.926;5.330;2022-07-21T07:17:56;20.20;99.90
19254;DHT22;9761;50.926;5.330;2022-07-21T07:20:23;20.10;99.90
19254;DHT22;9761;50.926;5.330;2022-07-21T07:22:50;20.00;99.90
19254;DHT22;9761;50.926;5.330;2022-07-21T07:25:19;20.30;99.90
19254;DHT22;9761;50.926;5.330;2022-07-21T07:27:48;20.10;99.90
19254;DHT22;9761;50.926;5.330;2022-07-21T07:30:14;19.80;99.90
19254;DHT22;9761;50.926;5.330;2022-07-21T07:32:41;19.80;99.90
19254;DHT22;9761;50.926;5.330;2022-07-21T07:35:15;19.90;99.90
19254;DHT22;9761;50.926;5.330;2022-07-21T07:37:43;19.60;99.90
19254;DHT22;9761;50.926;5.330;2022-07-21T07:40:12;19.30;99.90
19254;DHT22;9761;50.926;5.330;2022-07-21T07:42:39;19.40;99.90
19254;DHT22;9761;50.926;5.330;2022-07-21T07:45:08;19.40;99.90
19254;DHT22;9761;50.926;5.330;2022-07-21T07:47:35;19.50;99.90
19254;DHT22;9761;50.926;5.330;2022-07-21T07:50:03;19.70;99.90
19254;DHT22;9761;50.926;5.330;2022-07-21T07:52:31;19.60;99.90
19254;DHT22;9761;50.926;5.330;2022-07-21T07:54:58;19.30;99.90
19254;DHT22;9761;50.926;5.330;2022-07-21T07:57:36;19.30;99.90
19254;DHT22;9761;50.926;5.330;2022-07-21T08:00:14;19.30;99.90
19254;DHT22;9761;50.926;5.330;2022-07-21T08:02:41;19.20;99.90
19254;DHT22;9761;50.926;5.330;2022-07-21T08:05:09;19.20;99.90
19254;DHT22;9761;50.926;5.330;2022-07-21T08:07:40;19.30;99.90
19254;DHT22;9761;50.926;5.330;2022-07-21T08:10:07;19.20;99.90
19254;DHT22;9761;50.926;5.330;2022-07-21T08:12:34;19.20;99.90
19254;DHT22;9761;50.926;5.330;2022-07-21T08:15:01;19.20;99.90
19254;DHT22;9761;50.926;5.330;2022-07-21T08:17:28;19.20;99.90
19254;DHT22;9761;50.926;5.330;2022-07-21T08:19:55;19.10;99.90
19254;DHT22;9761;50.926;5.330;2022-07-21T08:22:22;19.20;99.90
19254;DHT22;9761;50.926;5.330;2022-07-21T08:24:52;19.20;99.90
19254;DHT22;9761;50.926;5.330;2022-07-21T08:27:19;19.20;99.90
19254;DHT22;9761;50.926;5.330;2022-07-21T08:29:46;19.30;99.90
19254;DHT22;9761;50.926;5.330;2022-07-21T08:32:15;19.20;99.90
19254;DHT22;9761;50.926;5.330;2022-07-21T08:34:43;19.30;99.90
19254;DHT22;9761;50.926;5.330;2022-07-21T08:37:10;19.30;99.90
19254;DHT22;9761;50.926;5.330;2022-07-21T08:39:36;19.60;99.90
19254;DHT22;9761;50.926;5.330;2022-07-21T08:42:06;19.20;99.90
19254;DHT22;9761;50.926;5.330;2022-07-21T08:44:33;19.20;99.90
19254;DHT22;9761;50.926;5.330;2022-07-21T08:47:00;19.30;99.90
19254;DHT22;9761;50.926;5.330;2022-07-21T08:49:27;19.40;99.90
19254;DHT22;9761;50.926;5.330;2022-07-21T08:51:54;19.40;99.90
19254;DHT22;9761;50.926;5.330;2022-07-21T08:54:21;19.10;99.90
19254;DHT22;9761;50.926;5.330;2022-07-21T08:56:49;19.10;99.90
19254;DHT22;9761;50.926;5.330;2022-07-21T08:59:17;18.80;99.90
19254;DHT22;9761;50.926;5.330;2022-07-21T09:01:44;19.00;99.90
19254;DHT22;9761;50.926;5.330;2022-07-21T09:04:20;18.80;99.90
19254;DHT22;9761;50.926;5.330;2022-07-21T09:06:55;18.80;99.90
19254;DHT22;9761;50.926;5.330;2022-07-21T09:09:22;18.70;99.90
19254;DHT22;9761;50.926;5.330;2022-07-21T09:11:49;18.60;99.90
19254;DHT22;9761;50.926;5.330;2022-07-21T09:14:19;18.60;99.90
19254;DHT22;9761;50.926;5.330;2022-07-21T09:16:48;18.60;99.90
19254;DHT22;9761;50.926;5.330;2022-07-21T09:19:16;18.60;99.90
19254;DHT22;9761;50.926;5.330;2022-07-21T09:21:45;18.50;99.90
19254;DHT22;9761;50.926;5.330;2022-07-21T09:24:15;18.60;99.90
19254;DHT22;9761;50.926;5.330;2022-07-21T09:29:33;18.60;99.90
19254;DHT22;9761;50.926;5.330;2022-07-21T09:32:11;18.60;99.90
19254;DHT22;9761;50.926;5.330;2022-07-21T09:35:10;18.60;99.90
19254;DHT22;9761;50.926;5.330;2022-07-21T09:38:07;18.60;99.90
19254;DHT22;9761;50.926;5.330;2022-07-21T09:41:09;18.70;99.90
19254;DHT22;9761;50.926;5.330;2022-07-21T09:43:50;18.80;99.90
19254;DHT22;9761;50.926;5.330;2022-07-21T09:46:36;18.70;99.90
19254;DHT22;9761;50.926;5.330;2022-07-21T09:49:09;18.70;99.90
19254;DHT22;9761;50.926;5.330;2022-07-21T09:51:45;18.70;99.90
19254;DHT22;9761;50.926;5.330;2022-07-21T09:55:12;18.70;99.90
19254;DHT22;9761;50.926;5.330;2022-07-21T09:57:27;18.70;99.90
19254;DHT22;9761;50.926;5.330;2022-07-21T10:00:12;18.70;99.90
19254;DHT22;9761;50.926;5.330;2022-07-21T10:02:53;18.70;99.90
19254;DHT22;9761;50.926;5.330;2022-07-21T10:05:22;18.70;99.90
19254;DHT22;9761;50.926;5.330;2022-07-21T10:08:14;18.70;99.90
19254;DHT22;9761;50.926;5.330;2022-07-21T10:13:36;18.60;99.90
19254;DHT22;9761;50.926;5.330;2022-07-21T10:19:28;18.70;99.90
19254;DHT22;9761;50.926;5.330;2022-07-21T10:22:17;18.60;99.90
19254;DHT22;9761;50.926;5.330;2022-07-21T10:24:57;18.40;99.90
19254;DHT22;9761;50.926;5.330;2022-07-21T10:27:30;18.40;99.90
19254;DHT22;9761;50.926;5.330;2022-07-21T10:30:00;18.50;99.90
19254;DHT22;9761;50.926;5.330;2022-07-21T10:32:48;18.40;99.90
19254;DHT22;9761;50.926;5.330;2022-07-21T10:38:03;18.60;99.90
19254;DHT22;9761;50.926;5.330;2022-07-21T10:40:47;18.50;99.90
19254;DHT22;9761;50.926;5.330;2022-07-21T10:43:39;18.50;99.90
19254;DHT22;9761;50.926;5.330;2022-07-21T10:48:51;18.60;99.90
19254;DHT22;9761;50.926;5.330;2022-07-21T10:51:24;18.40;99.90
19254;DHT22;9761;50.926;5.330;2022-07-21T10:54:28;18.30;99.90
19254;DHT22;9761;50.926;5.330;2022-07-21T11:02:29;18.20;99.90
19254;DHT22;9761;50.926;5.330;2022-07-21T11:05:05;18.30;99.90
19254;DHT22;9761;50.926;5.330;2022-07-21T11:10:15;18.50;99.90
19254;DHT22;9761;50.926;5.330;2022-07-21T11:12:54;18.80;99.90
19254;DHT22;9761;50.926;5.330;2022-07-21T11:18:02;18.90;99.90
19254;DHT22;9761;50.926;5.330;2022-07-21T11:20:31;19.30;99.90
19254;DHT22;9761;50.926;5.330;2022-07-21T11:22:58;19.60;99.90
19254;DHT22;9761;50.926;5.330;2022-07-21T11:25:31;19.60;99.90
19254;DHT22;9761;50.926;5.330;2022-07-21T11:28:02;19.40;99.90
19254;DHT22;9761;50.926;5.330;2022-07-21T11:30:29;19.50;99.90
19254;DHT22;9761;50.926;5.330;2022-07-21T11:32:56;19.80;99.90
19254;DHT22;9761;50.926;5.330;2022-07-21T11:35:23;19.50;99.90
19254;DHT22;9761;50.926;5.330;2022-07-21T11:37:50;19.40;99.90
19254;DHT22;9761;50.926;5.330;2022-07-21T11:40:18;19.50;99.90
19254;DHT22;9761;50.926;5.330;2022-07-21T11:42:47;19.30;99.90
19254;DHT22;9761;50.926;5.330;2022-07-21T11:45:15;19.50;99.90
19254;DHT22;9761;50.926;5.330;2022-07-21T11:50:28;19.80;99.90
19254;DHT22;9761;50.926;5.330;2022-07-21T11:53:01;19.90;99.90
19254;DHT22;9761;50.926;5.330;2022-07-21T11:55:32;20.10;99.90
19254;DHT22;9761;50.926;5.330;2022-07-21T11:58:02;19.90;99.90
19254;DHT22;9761;50.926;5.330;2022-07-21T12:03:55;19.90;99.90
19254;DHT22;9761;50.926;5.330;2022-07-21T12:06:40;19.70;99.90
19254;DHT22;9761;50.926;5.330;2022-07-21T12:09:18;19.90;99.90
19254;DHT22;9761;50.926;5.330;2022-07-21T12:11:48;19.90;99.90
19254;DHT22;9761;50.926;5.330;2022-07-21T12:14:17;20.10;99.90
19254;DHT22;9761;50.926;5.330;2022-07-21T12:16:47;20.00;99.90
19254;DHT22;9761;50.926;5.330;2022-07-21T12:19:15;19.90;99.90
19254;DHT22;9761;50.926;5.330;2022-07-21T12:21:44;19.80;99.90
19254;DHT22;9761;50.926;5.330;2022-07-21T12:24:11;19.90;99.90
19254;DHT22;9761;50.926;5.330;2022-07-21T12:26:38;19.80;99.90
19254;DHT22;9761;50.926;5.330;2022-07-21T12:29:05;19.70;99.90
19254;DHT22;9761;50.926;5.330;2022-07-21T12:31:36;19.80;99.90
19254;DHT22;9761;50.926;5.330;2022-07-21T12:34:12;20.10;99.90
19254;DHT22;9761;50.926;5.330;2022-07-21T12:36:39;19.90;99.90
19254;DHT22;9761;50.926;5.330;2022-07-21T12:39:17;19.80;99.90
19254;DHT22;9761;50.926;5.330;2022-07-21T12:41:58;19.50;99.90
19254;DHT22;9761;50.926;5.330;2022-07-21T12:44:25;19.50;99.90
19254;DHT22;9761;50.926;5.330;2022-07-21T12:46:54;19.70;99.90
19254;DHT22;9761;50.926;5.330;2022-07-21T12:49:21;19.90;99.90
19254;DHT22;9761;50.926;5.330;2022-07-21T12:51:54;20.10;99.90
19254;DHT22;9761;50.926;5.330;2022-07-21T12:54:21;20.00;99.90
19254;DHT22;9761;50.926;5.330;2022-07-21T12:56:48;20.10;99.90
19254;DHT22;9761;50.926;5.330;2022-07-21T12:59:15;19.70;99.90
19254;DHT22;9761;50.926;5.330;2022-07-21T13:01:42;19.60;99.90
19254;DHT22;9761;50.926;5.330;2022-07-21T13:04:10;19.70;99.90
19254;DHT22;9761;50.926;5.330;2022-07-21T13:06:37;19.40;99.90
19254;DHT22;9761;50.926;5.330;2022-07-21T13:09:04;19.20;99.90
19254;DHT22;9761;50.926;5.330;2022-07-21T13:11:31;18.80;99.90
19254;DHT22;9761;50.926;5.330;2022-07-21T13:13:57;19.10;99.90
19254;DHT22;9761;50.926;5.330;2022-07-21T13:16:27;19.20;99.90
19254;DHT22;9761;50.926;5.330;2022-07-21T13:18:55;19.50;99.90
19254;DHT22;9761;50.926;5.330;2022-07-21T13:21:24;19.80;99.90
19254;DHT22;9761;50.926;5.330;2022-07-21T13:23:51;19.90;99.90
19254;DHT22;9761;50.926;5.330;2022-07-21T13:26:18;19.70;99.90
19254;DHT22;9761;50.926;5.330;2022-07-21T13:28:45;19.60;99.90
19254;DHT22;9761;50.926;5.330;2022-07-21T13:31:11;19.50;99.90
19254;DHT22;9761;50.926;5.330;2022-07-21T13:33:39;19.60;99.90
19254;DHT22;9761;50.926;5.330;2022-07-21T13:36:06;19.70;99.90
19254;DHT22;9761;50.926;5.330;2022-07-21T13:38:34;19.70;99.90
19254;DHT22;9761;50.926;5.330;2022-07-21T13:41:01;19.90;99.90
19254;DHT22;9761;50.926;5.330;2022-07-21T13:43:28;20.30;99.90
19254;DHT22;9761;50.926;5.330;2022-07-21T13:45:55;19.80;99.90
19254;DHT22;9761;50.926;5.330;2022-07-21T13:48:22;19.70;99.90
19254;DHT22;9761;50.926;5.330;2022-07-21T13:50:48;19.70;99.90
19254;DHT22;9761;50.926;5.330;2022-07-21T13:53:15;19.50;99.90
19254;DHT22;9761;50.926;5.330;2022-07-21T13:55:45;19.50;99.90
19254;DHT22;9761;50.926;5.330;2022-07-21T13:58:31;19.40;99.90
19254;DHT22;9761;50.926;5.330;2022-07-21T14:00:58;19.60;99.90
19254;DHT22;9761;50.926;5.330;2022-07-21T14:03:25;19.40;99.90
19254;DHT22;9761;50.926;5.330;2022-07-21T14:05:52;19.50;99.90
19254;DHT22;9761;50.926;5.330;2022-07-21T14:08:18;19.70;99.90
19254;DHT22;9761;50.926;5.330;2022-07-21T14:13:28;19.30;99.90
19254;DHT22;9761;50.926;5.330;2022-07-21T14:15:54;19.30;99.90
19254;DHT22;9761;50.926;5.330;2022-07-21T14:18:21;19.20;99.90
19254;DHT22;9761;50.926;5.330;2022-07-21T14:20:48;19.10;99.90
19254;DHT22;9761;50.926;5.330;2022-07-21T14:23:17;19.00;99.90
19254;DHT22;9761;50.926;5.330;2022-07-21T14:25:45;18.90;99.90
19254;DHT22;9761;50.926;5.330;2022-07-21T14:28:12;18.90;99.90
19254;DHT22;9761;50.926;5.330;2022-07-21T14:30:41;19.20;99.90
19254;DHT22;9761;50.926;5.330;2022-07-21T14:33:08;19.30;99.90
19254;DHT22;9761;50.926;5.330;2022-07-21T14:35:34;19.10;99.90
19254;DHT22;9761;50.926;5.330;2022-07-21T14:38:01;18.80;99.90
19254;DHT22;9761;50.926;5.330;2022-07-21T14:40:28;18.90;99.90
19254;DHT22;9761;50.926;5.330;2022-07-21T14:42:55;18.80;99.90
19254;DHT22;9761;50.926;5.330;2022-07-21T14:45:22;18.80;99.90
19254;DHT22;9761;50.926;5.330;2022-07-21T14:47:51;18.90;99.90
19254;DHT22;9761;50.926;5.330;2022-07-21T14:50:18;18.80;99.90
19254;DHT22;9761;50.926;5.330;2022-07-21T14:52:45;18.80;99.90
19254;DHT22;9761;50.926;5.330;2022-07-21T14:55:12;19.00;99.90
19254;DHT22;9761;50.926;5.330;2022-07-21T14:57:39;19.00;99.90
19254;DHT22;9761;50.926;5.330;2022-07-21T15:00:06;19.30;99.90
19254;DHT22;9761;50.926;5.330;2022-07-21T15:02:34;19.10;99.90
19254;DHT22;9761;50.926;5.330;2022-07-21T15:05:02;19.00;99.90
19254;DHT22;9761;50.926;5.330;2022-07-21T15:07:32;19.10;99.90
19254;DHT22;9761;50.926;5.330;2022-07-21T15:10:00;19.20;99.90
19254;DHT22;9761;50.926;5.330;2022-07-21T15:12:26;19.20;99.90
19254;DHT22;9761;50.926;5.330;2022-07-21T15:14:53;19.20;99.90
19254;DHT22;9761;50.926;5.330;2022-07-21T15:17:26;19.40;99.90
19254;DHT22;9761;50.926;5.330;2022-07-21T15:19:54;19.70;99.90
19254;DHT22;9761;50.926;5.330;2022-07-21T15:22:25;19.10;99.90
19254;DHT22;9761;50.926;5.330;2022-07-21T15:24:54;19.20;99.90
19254;DHT22;9761;50.926;5.330;2022-07-21T15:27:21;18.90;99.90
19254;DHT22;9761;50.926;5.330;2022-07-21T15:29:48;18.80;99.90
19254;DHT22;9761;50.926;5.330;2022-07-21T15:32:15;18.70;99.90
19254;DHT22;9761;50.926;5.330;2022-07-21T15:34:42;18.90;99.90
19254;DHT22;9761;50.926;5.330;2022-07-21T15:37:09;19.00;99.90
19254;DHT22;9761;50.926;5.330;2022-07-21T15:39:37;18.70;99.90
19254;DHT22;9761;50.926;5.330;2022-07-21T15:42:06;18.70;99.90
19254;DHT22;9761;50.926;5.330;2022-07-21T15:44:34;18.90;99.90
19254;DHT22;9761;50.926;5.330;2022-07-21T15:47:00;19.00;99.90
19254;DHT22;9761;50.926;5.330;2022-07-21T15:49:27;19.00;99.90
19254;DHT22;9761;50.926;5.330;2022-07-21T15:51:54;19.00;99.90
19254;DHT22;9761;50.926;5.330;2022-07-21T15:54:21;18.90;99.90
19254;DHT22;9761;50.926;5.330;2022-07-21T15:56:49;18.90;99.90
19254;DHT22;9761;50.926;5.330;2022-07-21T15:59:16;19.00;99.90
19254;DHT22;9761;50.926;5.330;2022-07-21T16:02:02;19.20;99.90
19254;DHT22;9761;50.926;5.330;2022-07-21T16:04:32;19.70;99.90
19254;DHT22;9761;50.926;5.330;2022-07-21T16:06:59;19.50;99.90
19254;DHT22;9761;50.926;5.330;2022-07-21T16:09:28;19.40;99.90
19254;DHT22;9761;50.926;5.330;2022-07-21T16:11:57;19.60;99.90
19254;DHT22;9761;50.926;5.330;2022-07-21T16:14:27;19.50;99.90
19254;DHT22;9761;50.926;5.330;2022-07-21T16:16:54;19.70;99.90
19254;DHT22;9761;50.926;5.330;2022-07-21T16:19:22;19.50;99.90
19254;DHT22;9761;50.926;5.330;2022-07-21T16:21:49;19.40;99.90
19254;DHT22;9761;50.926;5.330;2022-07-21T16:24:16;19.20;99.90
19254;DHT22;9761;50.926;5.330;2022-07-21T16:26:44;19.30;99.90
19254;DHT22;9761;50.926;5.330;2022-07-21T16:29:12;19.30;99.90
19254;DHT22;9761;50.926;5.330;2022-07-21T16:31:48;19.20;99.90
19254;DHT22;9761;50.926;5.330;2022-07-21T16:34:17;19.30;99.90
19254;DHT22;9761;50.926;5.330;2022-07-21T16:36:47;19.30;99.90
19254;DHT22;9761;50.926;5.330;2022-07-21T16:39:14;19.40;99.90